createdAt,value
2022-08-24T00:01:25.207Z,4.80
2022-08-24T00:03:59.874Z,4.40
2022-08-24T00:06:32.006Z,3.20
2022-08-24T00:09:05.222Z,5.70
2022-08-24T00:11:36.345Z,3.40
2022-08-24T00:14:08.109Z,4.10
2022-08-24T00:16:39.798Z,4.50
2022-08-24T00:19:11.728Z,3.90
2022-08-24T00:21:42.734Z,5.10
2022-08-24T00:24:15.795Z,5.90
2022-08-24T00:26:47.166Z,6.40
2022-08-24T00:29:20.145Z,3.70
2022-08-24T00:31:52.434Z,6.40
2022-08-24T00:34:24.024Z,5.70
2022-08-24T00:36:55.273Z,4.30
2022-08-24T00:39:29.654Z,5.60
2022-08-24T00:42:06.584Z,6.70
2022-08-24T00:44:38.017Z,7.70
2022-08-24T00:47:23.065Z,5.60
2022-08-24T00:50:26.246Z,6.50
2022-08-24T00:53:20.803Z,6.90
2022-08-24T00:56:00.734Z,6.40
2022-08-24T00:58:36.346Z,6.10
2022-08-24T01:01:10.069Z,5.90
2022-08-24T01:03:41.271Z,6.90
2022-08-24T01:06:13.354Z,8.20
2022-08-24T01:08:45.014Z,6.40
2022-08-24T01:11:20.233Z,6.90
2022-08-24T01:14:05.645Z,4.40
2022-08-24T01:17:30.194Z,7.50
2022-08-24T01:20:05.955Z,6.30
2022-08-24T01:23:16.882Z,5.30
2022-08-24T01:25:49.747Z,5.30
2022-08-24T01:28:27.297Z,7.60
2022-08-24T01:30:59.277Z,5.40
2022-08-24T01:33:33.494Z,6.20
2022-08-24T01:36:22.354Z,7.50
2022-08-24T01:39:04.805Z,6.70
2022-08-24T01:41:36.186Z,5.70
2022-08-24T01:44:11.627Z,7.50
2022-08-24T01:46:54.494Z,7.80
2022-08-24T01:49:29.705Z,10.10
2022-08-24T01:52:13.710Z,9.40
2022-08-24T01:54:55.673Z,7.60
2022-08-24T01:57:35.385Z,6.10
2022-08-24T02:00:53.772Z,6.90
2022-08-24T02:03:35.893Z,8.00
2022-08-24T02:06:23.914Z,5.90
2022-08-24T02:08:56.135Z,8.10
2022-08-24T02:11:41.852Z,7.70
2022-08-24T02:14:17.114Z,8.50
2022-08-24T02:16:50.126Z,5.50
2022-08-24T02:19:39.793Z,7.30
2022-08-24T02:22:34.725Z,4.30
2022-08-24T02:25:19.383Z,7.30
2022-08-24T02:27:50.745Z,5.80
2022-08-24T02:30:37.724Z,7.30
2022-08-24T02:33:15.654Z,10.20
2022-08-24T02:35:53.865Z,9.30
2022-08-24T02:38:28.292Z,6.20
2022-08-24T02:40:59.965Z,6.70
2022-08-24T02:43:30.845Z,9.10
2022-08-24T02:46:06.512Z,6.00
2022-08-24T02:48:44.292Z,8.50
2022-08-24T02:51:26.754Z,8.20
2022-08-24T02:54:02.344Z,5.90
2022-08-24T02:56:33.792Z,5.20
2022-08-24T02:59:04.783Z,5.90
2022-08-24T03:01:35.601Z,6.30
2022-08-24T03:04:06.705Z,6.40
2022-08-24T03:06:38.263Z,6.50
2022-08-24T03:09:43.504Z,6.10
2022-08-24T03:12:20.734Z,5.10
2022-08-24T03:14:56.022Z,6.00
2022-08-24T03:17:31.825Z,6.60
2022-08-24T03:20:04.504Z,7.50
2022-08-24T03:22:35.404Z,5.40
2022-08-24T03:25:08.352Z,7.60
2022-08-24T03:27:41.172Z,5.00
2022-08-24T03:30:14.624Z,7.20
2022-08-24T03:32:45.347Z,8.50
2022-08-24T03:35:17.524Z,7.70
2022-08-24T03:37:48.293Z,5.70
2022-08-24T03:40:23.104Z,8.10
2022-08-24T03:42:57.825Z,6.30
2022-08-24T03:45:31.419Z,5.30
2022-08-24T03:48:02.288Z,7.30
2022-08-24T03:50:33.386Z,9.20
2022-08-24T03:53:05.785Z,7.70
2022-08-24T03:55:40.244Z,5.40
2022-08-24T03:58:11.641Z,7.30
2022-08-24T04:00:43.740Z,6.20
2022-08-24T04:03:16.462Z,7.30
2022-08-24T04:05:47.985Z,6.30
2022-08-24T04:08:18.714Z,5.50
2022-08-24T04:10:53.525Z,7.20
2022-08-24T04:13:30.563Z,7.90
2022-08-24T04:16:10.219Z,6.10
2022-08-24T04:18:42.642Z,7.80
2022-08-24T04:21:23.863Z,5.10
2022-08-24T04:23:55.989Z,6.30
2022-08-24T04:26:44.857Z,8.70
2022-08-24T04:29:19.837Z,6.90
2022-08-24T04:32:51.478Z,7.20
2022-08-24T04:47:43.592Z,8.00
2022-08-24T04:50:15.190Z,9.30
2022-08-24T04:52:47.144Z,8.20
2022-08-24T04:59:43.719Z,8.30
2022-08-24T05:02:57.141Z,11.60
2022-08-24T05:05:55.083Z,7.10
2022-08-24T05:08:25.965Z,8.80
2022-08-24T05:11:08.604Z,9.90
2022-08-24T05:13:50.720Z,7.80
2022-08-24T05:16:32.957Z,8.30
2022-08-24T05:19:17.787Z,9.30
2022-08-24T05:21:59.236Z,9.20
2022-08-24T05:24:30.508Z,8.20
2022-08-24T05:27:01.542Z,9.50
2022-08-24T05:29:35.151Z,10.20
2022-08-24T05:32:06.542Z,8.90
2022-08-24T05:34:37.219Z,8.00
2022-08-24T05:37:07.820Z,9.90
2022-08-24T05:40:06.890Z,9.00
2022-08-24T05:42:40.318Z,9.20
2022-08-24T05:45:12.386Z,11.50
2022-08-24T05:48:04.645Z,9.20
2022-08-24T05:50:58.472Z,11.00
2022-08-24T05:54:06.945Z,10.60
2022-08-24T06:01:28.222Z,11.80
2022-08-24T06:04:00.846Z,9.40
2022-08-24T06:06:32.295Z,9.90
2022-08-24T06:09:05.027Z,11.00
2022-08-24T06:11:39.790Z,12.70
2022-08-24T06:14:17.326Z,10.80
2022-08-24T06:17:00.672Z,10.60
2022-08-24T06:19:31.415Z,9.40
2022-08-24T06:22:02.761Z,10.00
2022-08-24T06:24:51.445Z,11.80
2022-08-24T06:27:24.192Z,9.70
2022-08-24T06:30:03.736Z,11.60
2022-08-24T06:33:12.791Z,10.90
2022-08-24T06:36:04.476Z,8.60
2022-08-24T06:38:40.886Z,8.70
2022-08-24T06:41:21.039Z,11.10
2022-08-24T06:43:52.176Z,9.40
2022-08-24T06:46:39.916Z,10.10
2022-08-24T06:49:11.403Z,9.50
2022-08-24T06:51:42.293Z,9.40
2022-08-24T06:54:13.750Z,8.40
2022-08-24T06:56:46.616Z,6.40
2022-08-24T06:59:17.193Z,8.30
2022-08-24T07:01:47.932Z,9.20
2022-08-24T07:04:19.422Z,11.10
2022-08-24T07:07:22.807Z,7.80
2022-08-24T07:10:02.576Z,9.00
2022-08-24T07:12:40.287Z,12.50
2022-08-24T07:15:16.711Z,7.80
2022-08-24T07:21:33.463Z,8.20
2022-08-24T07:24:32.774Z,11.60
2022-08-24T07:27:29.920Z,9.30
2022-08-24T07:30:27.810Z,10.10
2022-08-24T07:33:08.688Z,14.20
2022-08-24T07:36:22.108Z,5.90
2022-08-24T07:39:22.432Z,8.80
2022-08-24T07:42:14.952Z,7.70
2022-08-24T07:45:19.273Z,6.90
2022-08-24T07:48:21.686Z,7.30
2022-08-24T07:51:08.534Z,8.40
2022-08-24T07:53:59.687Z,7.60
2022-08-24T07:56:50.721Z,11.30
2022-08-24T07:59:50.470Z,11.20
2022-08-24T08:06:19.739Z,8.60
2022-08-24T08:12:31.694Z,6.20
2022-08-24T08:15:31.675Z,7.40
2022-08-24T08:18:13.895Z,7.00
2022-08-24T08:20:52.156Z,9.20
2022-08-24T08:23:45.428Z,5.70
2022-08-24T08:26:55.526Z,8.50
2022-08-24T08:29:45.645Z,6.50
2022-08-24T08:32:32.477Z,8.40
2022-08-24T08:35:27.134Z,8.10
2022-08-24T08:38:15.065Z,9.80
2022-08-24T08:41:14.315Z,10.70
2022-08-24T08:44:16.256Z,9.00
2022-08-24T08:47:23.369Z,8.20
2022-08-24T08:50:13.219Z,14.20
2022-08-24T08:53:09.244Z,8.50
2022-08-24T08:56:21.917Z,10.40
2022-08-24T08:59:29.115Z,11.10
2022-08-24T09:02:33.236Z,8.30
2022-08-24T09:05:29.365Z,7.20
2022-08-24T09:08:44.237Z,10.10
2022-08-24T09:11:50.172Z,8.80
2022-08-24T09:15:14.909Z,9.10
2022-08-24T09:18:03.113Z,6.50
2022-08-24T09:20:59.347Z,8.40
2022-08-24T09:23:55.501Z,10.40
2022-08-24T09:26:51.349Z,9.20
2022-08-24T09:30:03.298Z,8.00
2022-08-24T09:32:59.524Z,9.20
2022-08-24T09:35:54.362Z,8.70
2022-08-24T09:39:01.357Z,8.80
2022-08-24T09:41:52.413Z,9.20
2022-08-24T09:44:58.520Z,7.60
2022-08-24T09:48:09.978Z,10.40
2022-08-24T09:51:24.155Z,9.50
2022-08-24T09:54:35.087Z,8.50
2022-08-24T09:57:59.876Z,10.00
2022-08-24T10:05:18.551Z,8.70
2022-08-24T10:08:32.218Z,10.60
2022-08-24T10:11:36.032Z,10.80
2022-08-24T10:14:24.355Z,12.00
2022-08-24T10:17:29.074Z,8.90
2022-08-24T10:20:23.916Z,9.20
2022-08-24T10:23:10.287Z,8.00
2022-08-24T10:26:10.116Z,9.90
2022-08-24T10:29:07.781Z,9.90
2022-08-24T10:32:04.539Z,9.40
2022-08-24T10:35:01.426Z,11.20
2022-08-24T10:38:18.305Z,7.70
2022-08-24T10:41:29.299Z,12.90
2022-08-24T10:44:09.246Z,9.10
2022-08-24T10:46:54.442Z,7.90
2022-08-24T10:49:39.802Z,12.00
2022-08-24T10:52:31.031Z,13.60
2022-08-24T10:55:15.268Z,12.30
2022-08-24T10:58:15.260Z,12.50
2022-08-24T11:00:49.622Z,12.00
2022-08-24T11:03:28.590Z,12.70
2022-08-24T11:08:35.213Z,10.50
2022-08-24T11:11:24.015Z,10.00
2022-08-24T11:14:11.091Z,6.90
2022-08-24T11:17:07.303Z,11.90
2022-08-24T11:19:55.369Z,14.30
2022-08-24T11:22:55.184Z,15.50
2022-08-24T11:25:48.184Z,13.20
2022-08-24T11:29:12.181Z,12.30
2022-08-24T11:32:08.298Z,14.60
2022-08-24T11:35:11.359Z,10.90
2022-08-24T11:38:08.344Z,13.70
2022-08-24T11:41:04.105Z,15.80
2022-08-24T11:44:17.884Z,12.50
2022-08-24T11:48:12.258Z,14.50
2022-08-24T11:51:11.237Z,12.60
2022-08-24T11:54:08.434Z,16.00
2022-08-24T11:57:12.248Z,11.80
2022-08-24T12:00:13.860Z,11.00
2022-08-24T12:03:01.265Z,10.70
2022-08-24T12:05:50.457Z,14.60
2022-08-24T12:08:52.537Z,15.50
2022-08-24T12:11:55.499Z,11.60
2022-08-24T12:15:00.898Z,16.70
2022-08-24T12:17:58.767Z,13.20
2022-08-24T12:20:55.036Z,13.80
2022-08-24T12:24:10.897Z,14.50
2022-08-24T12:27:08.504Z,16.90
2022-08-24T12:30:23.453Z,14.40
2022-08-24T12:33:18.147Z,13.30
2022-08-24T12:36:15.424Z,17.30
2022-08-24T12:39:15.236Z,13.90
2022-08-24T12:42:13.530Z,16.80
2022-08-24T12:45:13.481Z,11.10
2022-08-24T12:48:10.134Z,18.20
2022-08-24T12:54:14.188Z,15.90
2022-08-24T12:57:35.099Z,13.00
2022-08-24T13:04:17.566Z,12.70
2022-08-24T13:07:05.258Z,13.60
2022-08-24T13:10:04.259Z,13.70
2022-08-24T13:13:39.486Z,14.10
2022-08-24T13:16:48.046Z,19.50
2022-08-24T13:19:39.216Z,17.10
2022-08-24T13:22:40.236Z,17.70
2022-08-24T13:25:40.296Z,18.30
2022-08-24T13:28:39.177Z,18.80
2022-08-24T13:31:43.035Z,16.60
2022-08-24T13:34:17.274Z,13.90
2022-08-24T13:37:07.727Z,15.00
2022-08-24T13:39:54.683Z,15.80
2022-08-24T13:42:48.403Z,15.50
2022-08-24T13:45:40.414Z,16.20
2022-08-24T13:49:05.758Z,17.10
2022-08-24T13:51:45.115Z,15.00
2022-08-24T13:54:44.310Z,14.50
2022-08-24T13:57:40.490Z,15.60
2022-08-24T14:00:36.236Z,10.60
2022-08-24T14:03:38.711Z,15.90
2022-08-24T14:06:25.094Z,14.90
2022-08-24T14:09:36.366Z,13.10
2022-08-24T14:12:46.828Z,12.90
2022-08-24T14:15:32.569Z,12.10
2022-08-24T14:18:11.147Z,17.40
2022-08-24T14:21:17.917Z,13.70
2022-08-24T14:24:11.155Z,16.60
2022-08-24T14:27:10.165Z,12.80
2022-08-24T14:30:06.313Z,15.50
2022-08-24T14:32:55.051Z,11.00
2022-08-24T14:36:28.275Z,12.30
2022-08-24T14:39:13.052Z,13.50
2022-08-24T14:42:16.433Z,14.20
2022-08-24T14:45:10.687Z,13.10
2022-08-24T14:47:48.266Z,12.80
2022-08-24T14:50:47.945Z,16.20
2022-08-24T14:53:45.790Z,12.50
2022-08-24T14:57:00.178Z,17.10
2022-08-24T14:59:54.326Z,11.20
2022-08-24T15:03:18.634Z,17.40
2022-08-24T15:06:26.394Z,16.30
2022-08-24T15:09:25.315Z,17.60
2022-08-24T15:12:14.150Z,16.00
2022-08-24T15:15:03.889Z,20.10
2022-08-24T15:18:00.212Z,17.80
2022-08-24T15:20:59.301Z,14.70
2022-08-24T15:24:00.191Z,11.50
2022-08-24T15:26:56.311Z,16.80
2022-08-24T15:29:49.047Z,16.90
2022-08-24T15:33:01.201Z,14.00
2022-08-24T15:35:52.303Z,18.60
2022-08-24T15:38:49.105Z,14.30
2022-08-24T15:44:44.225Z,15.30
2022-08-24T15:47:40.962Z,13.50
2022-08-24T15:50:38.244Z,14.40
2022-08-24T15:53:35.297Z,11.20
2022-08-24T15:56:36.042Z,15.90
2022-08-24T15:59:34.106Z,16.70
2022-08-24T16:02:29.349Z,14.40
2022-08-24T16:05:21.337Z,12.90
2022-08-24T16:08:20.958Z,12.20
2022-08-24T16:11:17.931Z,14.00
2022-08-24T16:14:14.018Z,17.00
2022-08-24T16:17:10.208Z,18.80
2022-08-24T16:20:06.160Z,18.70
2022-08-24T16:23:03.638Z,16.20
2022-08-24T16:26:00.132Z,13.00
2022-08-24T16:28:56.116Z,17.40
2022-08-24T16:31:54.597Z,14.40
2022-08-24T16:34:51.047Z,12.00
2022-08-24T16:37:49.041Z,11.40
2022-08-24T16:40:45.014Z,13.80
2022-08-24T16:43:47.204Z,18.70
2022-08-24T16:50:09.048Z,14.10
2022-08-24T16:53:05.813Z,11.10
2022-08-24T16:56:04.784Z,12.00
2022-08-24T16:59:00.878Z,11.70
2022-08-24T17:01:56.960Z,10.20
2022-08-24T17:04:53.817Z,13.00
2022-08-24T17:07:53.214Z,17.50
2022-08-24T17:10:50.255Z,10.60
2022-08-24T17:13:49.904Z,10.70
2022-08-24T17:16:47.097Z,13.60
2022-08-24T17:19:43.401Z,12.80
2022-08-24T17:22:39.905Z,12.70
2022-08-24T17:25:37.204Z,15.00
2022-08-24T17:28:34.753Z,10.80
2022-08-24T17:31:32.173Z,8.50
2022-08-24T17:34:28.605Z,10.20
2022-08-24T17:37:25.132Z,11.70
2022-08-24T17:40:22.787Z,10.40
2022-08-24T17:43:19.270Z,13.80
2022-08-24T17:46:15.974Z,10.50
2022-08-24T17:49:12.894Z,8.00
2022-08-24T17:52:30.024Z,13.90
2022-08-24T17:55:26.053Z,7.70
2022-08-24T17:58:22.015Z,8.50
2022-08-24T18:01:35.490Z,7.80
2022-08-24T18:04:38.124Z,12.80
2022-08-24T18:07:53.003Z,16.00
2022-08-24T18:10:53.247Z,11.00
2022-08-24T18:13:49.940Z,11.30
2022-08-24T18:16:53.944Z,13.40
2022-08-24T18:20:15.298Z,13.10
2022-08-24T18:23:21.152Z,9.90
2022-08-24T18:26:17.907Z,11.40
2022-08-24T18:29:21.003Z,9.30
2022-08-24T18:35:40.285Z,12.30
2022-08-24T18:48:11.287Z,10.90
2022-08-24T18:51:14.516Z,9.30
2022-08-24T18:53:48.235Z,7.50
2022-08-24T18:56:22.640Z,10.60
2022-08-24T18:59:01.022Z,8.40
2022-08-24T19:02:12.270Z,11.80
2022-08-24T19:06:22.547Z,10.10
2022-08-24T19:08:53.417Z,10.60
2022-08-24T19:11:28.832Z,9.00
2022-08-24T19:14:02.695Z,8.10
2022-08-24T19:16:34.705Z,11.00
2022-08-24T19:19:07.167Z,9.80
2022-08-24T19:21:56.554Z,10.90
2022-08-24T19:24:33.625Z,11.60
2022-08-24T19:27:04.798Z,9.10
2022-08-24T19:29:55.174Z,8.30
2022-08-24T19:36:26.592Z,10.00
2022-08-24T19:38:58.632Z,10.10
2022-08-24T19:41:36.437Z,8.10
2022-08-24T19:44:27.455Z,11.00
2022-08-24T19:47:30.434Z,8.70
2022-08-24T19:57:23.676Z,8.10
2022-08-24T19:59:55.456Z,7.70
2022-08-24T20:02:28.874Z,10.80
2022-08-24T20:05:02.752Z,7.80
2022-08-24T20:11:26.036Z,7.50
2022-08-24T20:13:57.255Z,13.40
2022-08-24T20:16:34.815Z,10.10
2022-08-24T20:19:09.197Z,9.60
2022-08-24T20:22:13.510Z,11.40
2022-08-24T20:34:55.752Z,9.70
2022-08-24T20:41:26.478Z,9.50
2022-08-24T20:43:58.846Z,7.70
2022-08-24T20:46:30.818Z,10.00
2022-08-24T20:49:02.086Z,8.70
2022-08-24T20:51:39.495Z,8.00
2022-08-24T20:54:11.202Z,10.20
2022-08-24T20:56:49.796Z,10.20
2022-08-24T20:59:24.494Z,10.10
2022-08-24T21:02:28.177Z,8.30
2022-08-24T21:05:18.817Z,7.30
2022-08-24T21:07:51.091Z,12.50
2022-08-24T21:10:35.365Z,12.10
2022-08-24T21:13:26.787Z,9.80
2022-08-24T21:15:58.459Z,6.60
2022-08-24T21:18:29.612Z,8.50
2022-08-24T21:21:04.447Z,14.20
2022-08-24T21:24:05.155Z,10.20
2022-08-24T21:29:34.129Z,8.30
2022-08-24T21:32:21.838Z,9.70
2022-08-24T21:34:52.761Z,9.90
2022-08-24T21:37:23.766Z,8.90
2022-08-24T21:39:55.385Z,7.50
2022-08-24T21:42:27.437Z,9.60
2022-08-24T21:44:58.090Z,9.10
2022-08-24T21:47:53.934Z,8.60
2022-08-24T21:50:26.687Z,9.80
2022-08-24T21:52:58.103Z,7.20
2022-08-24T21:55:30.095Z,8.70
2022-08-24T21:58:47.226Z,8.30
2022-08-24T22:01:18.227Z,9.80
2022-08-24T22:03:48.929Z,8.80
2022-08-24T22:06:21.015Z,9.30
2022-08-24T22:08:55.285Z,12.40
2022-08-24T22:11:26.322Z,10.10
2022-08-24T22:13:58.375Z,8.60
2022-08-24T22:16:37.604Z,9.10
2022-08-24T22:19:09.586Z,9.60
2022-08-24T22:21:47.546Z,11.10
2022-08-24T22:24:19.998Z,12.30
2022-08-24T22:26:54.878Z,9.20
2022-08-24T22:29:28.424Z,10.30
2022-08-24T22:31:59.422Z,10.80
2022-08-24T22:34:31.695Z,7.90
2022-08-24T22:37:27.432Z,8.80
2022-08-24T22:40:19.086Z,6.80
2022-08-24T22:42:51.652Z,8.60
2022-08-24T22:45:23.065Z,9.50
2022-08-24T22:47:54.312Z,6.20
2022-08-24T22:50:27.279Z,10.80
2022-08-24T22:53:07.824Z,5.90
2022-08-24T22:56:17.877Z,6.40
2022-08-24T22:58:50.119Z,6.70
2022-08-24T23:01:33.438Z,6.60
2022-08-24T23:04:38.435Z,5.80
2022-08-24T23:07:18.781Z,7.00
2022-08-24T23:10:15.393Z,8.90
2022-08-24T23:12:48.368Z,7.00
2022-08-24T23:15:27.832Z,7.00
2022-08-24T23:19:01.912Z,7.70
2022-08-24T23:21:35.651Z,11.40
2022-08-24T23:24:12.366Z,10.40
2022-08-24T23:26:51.946Z,9.90
2022-08-24T23:29:27.315Z,12.80
2022-08-24T23:31:58.805Z,8.60
2022-08-24T23:34:30.132Z,7.50
2022-08-24T23:37:01.607Z,8.50
2022-08-24T23:39:54.135Z,5.00
2022-08-24T23:42:25.115Z,8.90
2022-08-24T23:44:56.469Z,5.70
2022-08-24T23:47:28.209Z,9.00
2022-08-24T23:50:46.721Z,11.10
2022-08-24T23:53:17.822Z,5.90
2022-08-24T23:55:50.089Z,7.20
2022-08-24T23:58:21.730Z,10.10
